^^
Meteo Knjazevac Station Historical Data
Daily Summary for July 23, 2021 Units:  Metric    English   Both
Daily Weekly Monthly Yearly Custom
  High: Low: Average:
Temperature: -6.9 °C -8.7 °C -7.9 °C
Dew Point: -8.1 °C -10.1 °C -9.2 °C
Humidity: 93% 89% 90%
Wind Speed: 3.2km/h 0km/h 1.6km/h
Wind Gust: 9.7km/h - -
Wind- - WNW
Pressure: 1029.3 hPa 1028.7 hPa -
Precipitation: 0 mm    
Historical Graphs
 
 
Tabular Data for July 23, 2021
Time Temperature Dew Point Pressure Wind Wind Speed Wind Gust Humidity Rainfall Rate (Hourly) solar Conditions
00:00 -6.9 °C -8.4 °C 1029.3 hPa WNW 1.6 km/h 3.2 km/h 89% 0 mm 0 W/m2
00:30 -7.4 °C -8.9 °C 1029 hPa WNW 1.6 km/h 3.2 km/h 89% 0 mm 0 W/m2
00:40 -7.5 °C -9 °C 1029 hPa WNW 1.6 km/h 3.2 km/h 89% 0 mm 0 W/m2
00:50 -7.6 °C -8.9 °C 1029 hPa WNW 1.6 km/h 4.8 km/h 90% 0 mm 0 W/m2
01:00 -7.5 °C -8.7 °C 1029 hPa NNW 1.6 km/h 3.2 km/h 91% 0 mm 0 W/m2
01:10 -7.5 °C -8.7 °C 1029 hPa Calm   4.8 km/h 91% 0 mm 0 W/m2
01:20 -7.2 °C -8.1 °C 1028.7 hPa SSE 1.6 km/h 8 km/h 93% 0 mm 0 W/m2
01:30 -7.4 °C -8.8 °C 1029 hPa NNW 1.6 km/h 3.2 km/h 90% 0 mm 0 W/m2
01:40 -7.4 °C -8.6 °C 1029 hPa Calm   3.2 km/h 91% 0 mm 0 W/m2
01:50 -7.7 °C -9.1 °C 1029 hPa Calm   3.2 km/h 90% 0 mm 0 W/m2
02:00 -8 °C -9.5 °C 1029 hPa West 3.2 km/h 4.8 km/h 89% 0 mm 0 W/m2
02:10 -8.2 °C -9.7 °C 1029 hPa WNW 3.2 km/h 4.8 km/h 89% 0 mm 0 W/m2
02:20 -8.3 °C -9.7 °C 1029 hPa NW 1.6 km/h 6.4 km/h 90% 0 mm 0 W/m2
02:30 -8.3 °C -9.5 °C 1029 hPa NNW 1.6 km/h 4.8 km/h 91% 0 mm 0 W/m2
02:40 -8.2 °C -9.4 °C 1029 hPa NW 1.6 km/h 8 km/h 91% 0 mm 0 W/m2
02:50 -8.3 °C -9.5 °C 1028.7 hPa Calm   6.4 km/h 91% 0 mm 0 W/m2
03:00 -8.3 °C -9.5 °C 1028.7 hPa WNW 3.2 km/h 6.4 km/h 91% 0 mm 0 W/m2
03:10 -8.5 °C -9.8 °C 1028.7 hPa Calm   4.8 km/h 90% 0 mm 0 W/m2
03:20 -8.7 °C -10.1 °C 1028.7 hPa NW 3.2 km/h 4.8 km/h 90% 0 mm 0 W/m2
03:30 -8.5 °C -9.7 °C 1028.7 hPa NNW 1.6 km/h 9.7 km/h 91% 0 mm 0 W/m2
Knjazevac, Serbia
Compliments of Weather Underground - 2 mb